Huvudsida
METAR-TAF:

METAR-TAF

Flygplatser :

Tjeljabinsk, Ryssland

latitud: 55-10N, longitud: 061-24E, höjd: 234 m

Aktuellt väderrapport

Denna rapport gjordes för 26 minuter sedan, klockan 06:00 UTC
Vind 16 kt från nord
Temperatur 17°C
Fuktighet 77%
Tryck 1005 hPa
Sikt 10 km eller mer
Spridda moln på en höjd av 2000 ft, Cumulonimbus.

METAR: USCC 230600Z 01008MPS 9999 SCT020CB 17/13 Q1005 R27/250045 NOSIG RMK QFE734

Tid: 11:26 (06:26 UTC)

Väderprognos

Denna rapport gjordes för 1 timme och 36 minuter sedan, klockan 04:50 UTC
Prognos gäller från 23 kl. 06 UTC till 24 kl. 06 UTC
Vind 10 kt från nord i byarna ända upp till 19 kt
Sikt 10 km eller mer
Brutna moln på en höjd av 2000 ft, Cumulonimbus.
Temporärt
från 23 kl. 06 UTC till 23 kl. 12 UTC
Vind 19 kt från nord
Brutna moln på en höjd av 1600 ft, Cumulonimbus.
lätta regnskurar,

TAF: USCC 230450Z 2306/2406 35005G10MPS 9999 BKN020CB TEMPO 2306/2312 01010MPS -SHRA BKN016CB

Aktuella väderrapporter och prognoser från 4000 flygplatser (METAR- och TAF-rapporter).

De tillgängliga stationerna syns som gula och röda prickar på kartan.

För musen över prickarna för att se namnen på stationerna.

Klicka sedan för att få väderrapporter och prognoser.

För att ändra kartan: Klicka på de gröna knapparna med ett svart kors på för att zooma in; den gröna knappen med ett streck på för att zooma ut; eller på de gröna pilarna för angränsande kartor.


METAR-TAF: